Historique des mesures à Cassis (13260), France
Quotidien Résumé Octobre 13, 2018 Unités:  Métrique    US   Métrique/US
« Précédent (Jour)
Suivant (Jour) »
Quotidien Hebdomadaire Mensuel Annuel Période au choix
  Maximum: Minimum: Moyenne:
Température: TemperatureC °C 16.3 °C 18.9 °C
Point de rosée: DewpointC °C 10.3 °C 13.6 °C
Humidité: Humidity % 56 % 68 %
Vitesse du vent: 0 km/h 0 km/h 3.4 km/h
Rafales: 0 km/h - -
Vent:- - South
Pression: PressurehPa hPa 1015.2 hPa -
Précipitations: 0.0 mm    
Historical Graphs
 
 
Mesures pour : Octobre 13, 2018
Heure Temperature Point de rosée Pression Vent Vitesse du vent Rafales Humidité Pluie (par heure) Conditions
TemperatureC °C DewpointC °C PressurehPa hPa Calm     Humidity % HourlyPrecipMM mm SoftwareType W/m2
00:10 17.8 °C 14.1 °C 1020.3 hPa Calm     79 % 0.0 mm open2300-1.11 W/m2
01:10 17.3 °C 13.8 °C 1019.6 hPa WNW 6.4 km/h 6.4 km/h 80 % 0.0 mm open2300-1.11 W/m2
02:10 17.6 °C 13.5 °C 1019.6 hPa NW 4 km/h 4 km/h 77 % 0.0 mm open2300-1.11 W/m2
03:10 17.3 °C 13.2 °C 1019.4 hPa NNW 2.3 km/h 2.3 km/h 77 % 0.0 mm open2300-1.11 W/m2
04:10 16.6 °C 12.5 °C 1019.1 hPa Calm   9.3 km/h 77 % 0.0 mm open2300-1.11 W/m2
05:10 16.3 °C 12.5 °C 1019.1 hPa NW 4 km/h 5.1 km/h 78 % 0.0 mm open2300-1.11 W/m2
06:10 16.3 °C 12.5 °C 1018.7 hPa Calm     78 % 0.0 mm open2300-1.11 W/m2
07:10 16.8 °C 12.9 °C 1018.6 hPa Calm     78 % 0.0 mm open2300-1.11 W/m2
08:10 16.6 °C 12.9 °C 1018.3 hPa Calm     79 % 0.0 mm open2300-1.11 W/m2
09:10 18.2 °C 14.3 °C 1018.2 hPa Calm     78 % 0.0 mm open2300-1.11 W/m2
10:10 19.8 °C 14.6 °C 1018.5 hPa Calm   11.6 km/h 72 % 0.0 mm open2300-1.11 W/m2
11:10 21.1 °C 15.6 °C 1018.6 hPa SSE 16.3 km/h 16.3 km/h 71 % 0.0 mm open2300-1.11 W/m2
12:10 22.4 °C 16.5 °C 1018.4 hPa Calm     69 % 0.0 mm open2300-1.11 W/m2
13:10 23.3 °C 16.8 °C 1018.2 hPa SE 8.7 km/h 8.7 km/h 67 % 0.0 mm open2300-1.11 W/m2
14:10 23.5 °C 17.3 °C 1017.4 hPa North 5.1 km/h 5.8 km/h 68 % 0.0 mm open2300-1.11 W/m2
15:10 23.3 °C 17.6 °C 1016.8 hPa NNW 3.5 km/h 4 km/h 70 % 0.0 mm open2300-1.11 W/m2
16:10 23.4 °C 17.4 °C 1016.3 hPa Calm   5.1 km/h 69 % 0.0 mm open2300-1.11 W/m2
17:10 23.2 °C 15.2 °C 1015.6 hPa ESE 10.5 km/h 12.2 km/h 61 % 0.0 mm open2300-1.11 W/m2
18:10 22.6 °C 15.2 °C 1015.4 hPa SSE 2.3 km/h 2.3 km/h 63 % 0.0 mm open2300-1.11 W/m2
19:10 21.2 °C 14.1 °C 1015.6 hPa East 6.9 km/h 6.9 km/h 64 % 0.0 mm open2300-1.11 W/m2
20:10 20.3 °C 13.0 °C 1015.6 hPa ESE 2.3 km/h 8 km/h 63 % 0.0 mm open2300-1.11 W/m2
21:10 19.4 °C 11.9 °C 1015.2 hPa Calm   3.5 km/h 62 % 0.0 mm open2300-1.11 W/m2
22:10 19.5 °C 11.6 °C 1015.2 hPa ESE 6.4 km/h 6.4 km/h 60 % 0.0 mm open2300-1.11 W/m2
23:10 19.3 °C 10.3 °C 1015.2 hPa ESE 4 km/h 8 km/h 56 % 0.0 mm open2300-1.11 W/m2
Observations météo à CASSIS
WU-History script by Weather Underground - 1 mb